createdAt,value
2022-11-02T00:04:11.556Z,45.27
2022-11-02T00:09:33.179Z,44.97
2022-11-02T00:14:55.004Z,45.03
2022-11-02T00:20:19.671Z,45.29
2022-11-02T00:25:44.089Z,45.33
2022-11-02T00:31:05.779Z,45.01
2022-11-02T00:36:28.141Z,44.85
2022-11-02T00:41:49.806Z,45.32
2022-11-02T00:47:12.062Z,45.17
2022-11-02T00:52:33.759Z,45.38
2022-11-02T00:57:55.494Z,44.95
2022-11-02T01:03:17.152Z,45.11
2022-11-02T01:08:38.921Z,45.14
2022-11-02T01:14:00.636Z,45.06
2022-11-02T01:19:22.364Z,45.33
2022-11-02T01:24:44.100Z,45.10
2022-11-02T01:30:06.345Z,45.32
2022-11-02T01:35:27.986Z,44.92
2022-11-02T01:40:49.623Z,45.11
2022-11-02T01:46:11.373Z,44.94
2022-11-02T01:51:38.149Z,45.07
2022-11-02T01:57:06.224Z,45.32
2022-11-02T02:02:28.587Z,45.34
2022-11-02T02:07:51.264Z,45.26
2022-11-02T02:13:14.322Z,45.38
2022-11-02T02:18:46.706Z,45.08
2022-11-02T02:24:29.542Z,45.29
2022-11-02T02:30:10.740Z,45.16
2022-11-02T02:35:41.391Z,44.83
2022-11-02T02:41:18.197Z,44.69
2022-11-02T02:46:55.911Z,45.02
2022-11-02T02:52:19.917Z,45.04
2022-11-02T02:57:41.851Z,44.75
2022-11-02T03:03:05.627Z,45.16
2022-11-02T03:08:27.578Z,44.78
2022-11-02T03:13:51.858Z,45.01
2022-11-02T03:19:31.698Z,44.64
2022-11-02T03:25:03.214Z,45.19
2022-11-02T03:30:28.453Z,44.99
2022-11-02T03:36:01.694Z,44.66
2022-11-02T03:41:25.694Z,44.76
2022-11-02T03:46:51.694Z,45.02
2022-11-02T03:52:20.289Z,45.07
2022-11-02T03:57:46.865Z,44.53
2022-11-02T04:03:12.087Z,44.86
2022-11-02T04:08:38.008Z,44.53
2022-11-02T04:14:18.498Z,44.38
2022-11-02T04:19:41.395Z,44.78
2022-11-02T04:25:15.892Z,44.92
2022-11-02T04:30:37.554Z,44.94
2022-11-02T04:36:04.217Z,44.49
2022-11-02T04:41:44.420Z,44.85
2022-11-02T04:47:06.107Z,44.67
2022-11-02T04:52:27.845Z,44.75
2022-11-02T04:57:49.607Z,44.64
2022-11-02T05:03:12.512Z,44.43
2022-11-02T05:08:35.963Z,44.25
2022-11-02T05:13:57.711Z,44.20
2022-11-02T05:19:19.358Z,44.74
2022-11-02T05:24:41.015Z,44.40
2022-11-02T05:30:02.840Z,44.46
2022-11-02T05:35:24.646Z,44.34
2022-11-02T05:40:53.077Z,44.50
2022-11-02T05:46:15.229Z,44.13
2022-11-02T05:51:36.865Z,44.67
2022-11-02T05:56:58.577Z,44.56
2022-11-02T06:02:23.295Z,44.47
2022-11-02T06:07:47.202Z,44.01
2022-11-02T06:13:08.964Z,43.78
2022-11-02T06:18:31.891Z,43.72
2022-11-02T06:23:54.461Z,43.88
2022-11-02T06:29:16.245Z,43.64
2022-11-02T06:34:37.953Z,44.07
2022-11-02T06:39:59.594Z,43.67
2022-11-02T06:45:21.256Z,43.83
2022-11-02T06:50:43.055Z,43.59
2022-11-02T06:56:04.939Z,43.68
2022-11-02T07:01:26.690Z,43.92
2022-11-02T07:06:48.408Z,43.78
2022-11-02T07:12:10.030Z,44.30
2022-11-02T07:17:32.397Z,44.17
2022-11-02T07:22:56.214Z,44.12
2022-11-02T07:28:17.871Z,44.44
2022-11-02T07:33:39.562Z,44.48
2022-11-02T07:39:01.422Z,44.10
2022-11-02T07:44:23.057Z,44.29
2022-11-02T07:49:44.702Z,44.36
2022-11-02T07:55:06.951Z,44.36
2022-11-02T08:00:31.580Z,42.87
2022-11-02T08:05:53.989Z,41.52
2022-11-02T08:11:15.659Z,40.26
2022-11-02T08:16:37.305Z,40.31
2022-11-02T08:21:58.940Z,38.69
2022-11-02T08:27:20.675Z,36.80
2022-11-02T08:32:42.417Z,37.45
2022-11-02T08:38:04.822Z,38.38
2022-11-02T08:43:26.629Z,38.53
2022-11-02T08:48:48.339Z,39.26
2022-11-02T08:54:10.152Z,39.39
2022-11-02T08:59:31.774Z,39.90
2022-11-02T09:04:53.418Z,39.79
2022-11-02T09:10:15.115Z,40.58
2022-11-02T09:15:37.999Z,40.48
2022-11-02T09:21:04.394Z,40.57
2022-11-02T09:26:26.063Z,40.87
2022-11-02T09:31:49.076Z,40.84
2022-11-02T09:37:10.775Z,40.92
2022-11-02T09:42:54.943Z,41.03
2022-11-02T09:48:27.035Z,41.31
2022-11-02T09:54:17.455Z,40.89
2022-11-02T09:59:41.459Z,41.37
2022-11-02T10:05:25.420Z,41.42
2022-11-02T10:11:10.684Z,41.40
2022-11-02T10:16:59.259Z,41.30
2022-11-02T10:22:31.171Z,41.90
2022-11-02T10:28:04.433Z,41.94
2022-11-02T10:33:28.547Z,41.88
2022-11-02T10:39:24.080Z,41.75
2022-11-02T10:45:02.333Z,41.59
2022-11-02T10:50:41.478Z,41.76
2022-11-02T10:56:25.114Z,41.76
2022-11-02T11:02:05.224Z,41.96
2022-11-02T11:07:28.183Z,42.19
2022-11-02T11:12:50.311Z,42.00
2022-11-02T11:24:20.072Z,42.00
2022-11-02T11:29:48.093Z,42.16
2022-11-02T11:35:18.208Z,41.95
2022-11-02T11:40:45.272Z,41.81
2022-11-02T11:46:11.029Z,41.68
2022-11-02T11:51:39.619Z,41.17
2022-11-02T12:03:08.225Z,41.28
2022-11-02T12:08:56.312Z,41.13
2022-11-02T12:14:26.976Z,40.98
2022-11-02T12:19:51.360Z,41.26
2022-11-02T12:26:03.091Z,41.01
2022-11-02T12:31:37.382Z,41.30
2022-11-02T12:37:50.992Z,41.56
2022-11-02T12:43:31.143Z,41.38
2022-11-02T12:49:20.450Z,41.65
2022-11-02T12:54:51.410Z,41.75
2022-11-02T13:00:23.368Z,41.93
2022-11-02T13:05:54.306Z,41.84
2022-11-02T13:11:29.281Z,41.78
2022-11-02T13:16:59.345Z,41.57
2022-11-02T13:22:25.700Z,41.54
2022-11-02T13:28:10.087Z,41.62
2022-11-02T13:33:44.722Z,41.56
2022-11-02T13:39:16.228Z,41.26
2022-11-02T13:45:01.687Z,40.89
2022-11-02T13:50:26.395Z,41.20
2022-11-02T13:55:55.405Z,40.90
2022-11-02T14:01:19.995Z,40.85
2022-11-02T14:06:55.783Z,40.71
2022-11-02T14:12:17.414Z,40.38
2022-11-02T14:17:54.187Z,40.33
2022-11-02T14:23:15.860Z,40.31
2022-11-02T14:28:43.801Z,40.10
2022-11-02T14:34:38.522Z,40.37
2022-11-02T14:40:19.512Z,40.45
2022-11-02T14:46:06.439Z,40.32
2022-11-02T14:51:38.033Z,40.59
2022-11-02T14:57:02.906Z,40.40
2022-11-02T15:02:42.031Z,39.84
2022-11-02T15:08:19.960Z,39.97
2022-11-02T15:13:48.312Z,40.22
2022-11-02T15:19:39.262Z,39.82
2022-11-02T15:25:16.374Z,39.94
2022-11-02T15:30:47.081Z,40.29
2022-11-02T15:36:19.085Z,40.07
2022-11-02T15:42:01.488Z,39.72
2022-11-02T15:47:25.924Z,39.70
2022-11-02T15:53:28.852Z,40.11
2022-11-02T15:59:31.499Z,39.82
2022-11-02T16:04:57.055Z,39.98
2022-11-02T16:10:24.338Z,40.26
2022-11-02T16:15:48.996Z,39.91
2022-11-02T16:21:15.742Z,40.15
2022-11-02T16:26:37.410Z,40.43
2022-11-02T16:31:59.249Z,40.30
2022-11-02T16:37:21.868Z,40.71
2022-11-02T16:42:46.116Z,40.90
2022-11-02T16:48:29.155Z,40.55
2022-11-02T16:53:52.226Z,41.08
2022-11-02T16:59:14.682Z,40.96
2022-11-02T17:04:41.284Z,41.33
2022-11-02T17:10:05.672Z,40.78
2022-11-02T17:15:29.556Z,40.70
2022-11-02T17:21:13.984Z,40.15
2022-11-02T17:26:37.698Z,40.04
2022-11-02T17:32:01.203Z,39.63
2022-11-02T17:37:33.197Z,39.58
2022-11-02T17:42:58.956Z,39.58
2022-11-02T17:48:20.586Z,39.76
2022-11-02T17:53:42.811Z,40.15
2022-11-02T17:59:04.455Z,40.41
2022-11-02T18:04:26.094Z,40.20
2022-11-02T18:09:47.741Z,40.12
2022-11-02T18:15:24.247Z,40.21
2022-11-02T18:20:45.959Z,40.88
2022-11-02T18:26:11.186Z,40.83
2022-11-02T18:31:34.845Z,41.02
2022-11-02T18:36:56.698Z,40.95
2022-11-02T18:42:18.432Z,41.45
2022-11-02T18:47:40.361Z,41.13
2022-11-02T18:53:02.124Z,41.58
2022-11-02T18:58:23.841Z,41.67
2022-11-02T19:03:52.931Z,41.21
2022-11-02T19:09:19.160Z,41.31
2022-11-02T19:14:43.699Z,41.81
2022-11-02T19:20:05.840Z,41.70
2022-11-02T19:25:27.515Z,41.88
2022-11-02T19:30:49.181Z,41.73
2022-11-02T19:36:10.902Z,41.44
2022-11-02T19:41:32.942Z,41.42
2022-11-02T19:46:54.589Z,41.18
2022-11-02T19:52:16.482Z,41.35
2022-11-02T19:57:38.121Z,41.38
2022-11-02T20:02:59.804Z,41.46
2022-11-02T20:08:21.496Z,41.50
2022-11-02T20:13:44.562Z,41.45
2022-11-02T20:19:06.882Z,41.54
2022-11-02T20:24:28.531Z,42.10
2022-11-02T20:29:50.173Z,41.75
2022-11-02T20:35:13.740Z,42.30
2022-11-02T20:40:40.974Z,42.17
2022-11-02T20:46:42.468Z,42.56
2022-11-02T20:52:05.081Z,42.64
2022-11-02T20:57:28.502Z,42.46
2022-11-02T21:02:51.614Z,42.62
2022-11-02T21:08:14.008Z,42.42
2022-11-02T21:13:53.752Z,42.25
2022-11-02T21:19:15.392Z,42.57
2022-11-02T21:24:37.090Z,42.39
2022-11-02T21:29:58.740Z,42.22
2022-11-02T21:35:21.148Z,42.20
2022-11-02T21:40:42.771Z,42.78
2022-11-02T21:46:06.266Z,42.64
2022-11-02T21:51:28.682Z,42.04
2022-11-02T21:56:50.553Z,42.19
2022-11-02T22:02:12.560Z,42.35
2022-11-02T22:07:54.288Z,42.47
2022-11-02T22:13:34.005Z,42.35
2022-11-02T22:18:58.213Z,42.57
2022-11-02T22:24:21.470Z,42.77
2022-11-02T22:29:43.163Z,42.79
2022-11-02T22:35:05.113Z,42.62
2022-11-02T22:40:26.754Z,42.82
2022-11-02T22:45:48.387Z,42.88
2022-11-02T22:51:10.545Z,42.94
2022-11-02T22:56:32.929Z,42.65
2022-11-02T23:01:54.746Z,42.88
2022-11-02T23:07:16.490Z,42.53
2022-11-02T23:12:38.153Z,42.50
2022-11-02T23:17:59.869Z,42.74
2022-11-02T23:23:40.100Z,42.49
2022-11-02T23:29:20.367Z,42.40
2022-11-02T23:35:02.014Z,42.83
2022-11-02T23:40:23.637Z,42.65
2022-11-02T23:45:45.361Z,42.55
2022-11-02T23:51:25.555Z,42.48
2022-11-02T23:56:47.349Z,42.66
